Reading, Pennsylvania
Current Conditions -  °F | °C
As of 10:54 PM on Tuesday 21 Oct 2014 (Local Time) from KRDG Reporting Station
Broken Clouds Broken Clouds  
Wind Chill: 56°   Ceiling: 11000
Heat Index: 56°   Visibility: 10mi
Dew Point: 49°   Wind: 5mph
Humidity: 77%   Direction: 10°N
Pressure: 29.9"   Gusts: NA
Location:  40.34°N, 75.93°W
Report Text: KRDG 220254Z AUTO 01004KT 10SM FEW060 SCT090 BKN110 13/09 A2990 RMK AO2 SLP130 T01330094 51013
Loading
Personal Weather Stations






























Interactive Weather Map
Tropical Storm Tracking
New forecast layout! Learn more

10-Day Weather Forecast

Advertisements
Track Severe Weather on mobile